createdAt,value
2023-04-28T00:00:48.809Z,13.21
2023-04-28T00:03:16.022Z,13.19
2023-04-28T00:05:43.083Z,13.15
2023-04-28T00:08:10.706Z,13.11
2023-04-28T00:10:37.630Z,13.09
2023-04-28T00:13:04.602Z,13.05
2023-04-28T00:15:31.502Z,13.01
2023-04-28T00:17:59.823Z,12.99
2023-04-28T00:20:26.876Z,13.01
2023-04-28T00:22:53.784Z,13.00
2023-04-28T00:25:20.841Z,13.03
2023-04-28T00:27:47.733Z,13.04
2023-04-28T00:30:15.019Z,13.04
2023-04-28T00:32:42.321Z,13.04
2023-04-28T00:35:10.833Z,13.00
2023-04-28T00:37:38.635Z,12.98
2023-04-28T00:40:07.542Z,12.93
2023-04-28T00:42:34.553Z,12.88
2023-04-28T00:45:05.874Z,12.85
2023-04-28T00:47:33.498Z,12.84
2023-04-28T00:50:13.504Z,12.84
2023-04-28T00:52:43.690Z,12.80
2023-04-28T00:55:10.734Z,12.79
2023-04-28T00:57:37.751Z,12.81
2023-04-28T01:00:06.490Z,12.81
2023-04-28T01:02:33.835Z,12.80
2023-04-28T01:05:02.166Z,12.82
2023-04-28T01:07:29.787Z,12.84
2023-04-28T01:09:58.035Z,12.84
2023-04-28T01:12:25.212Z,12.82
2023-04-28T01:14:52.589Z,12.82
2023-04-28T01:17:19.713Z,12.81
2023-04-28T01:19:46.604Z,12.82
2023-04-28T01:22:16.697Z,12.80
2023-04-28T01:24:45.095Z,12.78
2023-04-28T01:27:12.004Z,12.77
2023-04-28T01:29:38.907Z,12.79
2023-04-28T01:32:05.891Z,12.80
2023-04-28T01:34:32.810Z,12.83
2023-04-28T01:36:59.734Z,12.84
2023-04-28T01:39:26.754Z,12.87
2023-04-28T01:41:54.989Z,12.89
2023-04-28T01:44:21.916Z,12.87
2023-04-28T01:46:48.898Z,12.84
2023-04-28T01:49:16.077Z,12.78
2023-04-28T01:51:43.230Z,12.71
2023-04-28T01:54:10.670Z,12.66
2023-04-28T01:56:37.783Z,12.64
2023-04-28T01:59:06.109Z,12.61
2023-04-28T02:01:33.196Z,12.56
2023-04-28T02:04:00.229Z,12.51
2023-04-28T02:06:27.880Z,12.46
2023-04-28T02:08:54.915Z,12.42
2023-04-28T02:11:21.861Z,12.41
2023-04-28T02:13:48.835Z,12.40
2023-04-28T02:16:17.059Z,12.37
2023-04-28T02:18:44.093Z,12.34
2023-04-28T02:21:12.477Z,12.29
2023-04-28T02:23:39.917Z,12.27
2023-04-28T02:26:07.330Z,12.27
2023-04-28T02:28:34.339Z,12.29
2023-04-28T02:31:06.304Z,12.28
2023-04-28T02:33:35.048Z,12.28
2023-04-28T02:36:03.815Z,12.28
2023-04-28T02:38:31.161Z,12.28
2023-04-28T02:40:59.512Z,12.26
2023-04-28T02:43:26.818Z,12.27
2023-04-28T02:45:54.676Z,12.28
2023-04-28T02:48:21.749Z,12.30
2023-04-28T02:50:50.634Z,12.33
2023-04-28T02:53:17.567Z,12.38
2023-04-28T02:55:44.672Z,12.39
2023-04-28T02:58:11.864Z,12.38
2023-04-28T03:00:38.841Z,12.35
2023-04-28T03:03:05.886Z,12.33
2023-04-28T03:05:33.010Z,12.29
2023-04-28T03:08:01.591Z,12.27
2023-04-28T03:10:28.587Z,12.23
2023-04-28T03:12:55.634Z,12.18
2023-04-28T03:15:22.583Z,12.16
2023-04-28T03:17:49.535Z,12.13
2023-04-28T03:20:16.509Z,12.11
2023-04-28T03:22:43.411Z,12.09
2023-04-28T03:25:11.662Z,12.10
2023-04-28T03:27:38.584Z,12.10
2023-04-28T03:30:07.277Z,12.11
2023-04-28T03:32:34.327Z,12.12
2023-04-28T03:35:01.363Z,12.12
2023-04-28T03:37:28.459Z,12.11
2023-04-28T03:39:55.384Z,12.08
2023-04-28T03:42:23.613Z,12.10
2023-04-28T03:44:50.691Z,12.11
2023-04-28T03:47:17.618Z,12.11
2023-04-28T03:49:44.525Z,12.11
2023-04-28T03:52:11.680Z,12.07
2023-04-28T03:54:38.738Z,12.06
2023-04-28T03:57:05.677Z,12.07
2023-04-28T03:59:33.953Z,12.05
2023-04-28T04:02:00.904Z,12.02
2023-04-28T04:04:28.260Z,12.02
2023-04-28T04:06:56.008Z,12.02
2023-04-28T04:09:23.199Z,12.01
2023-04-28T04:11:50.304Z,12.05
2023-04-28T04:14:17.574Z,12.08
2023-04-28T04:16:47.852Z,12.11
2023-04-28T04:19:14.776Z,12.16
2023-04-28T04:21:41.778Z,12.19
2023-04-28T04:24:08.882Z,12.22
2023-04-28T04:26:35.850Z,12.24
2023-04-28T04:29:02.777Z,12.28
2023-04-28T04:31:29.828Z,12.27
2023-04-28T04:33:58.119Z,12.28
2023-04-28T04:36:25.225Z,12.27
2023-04-28T04:38:54.301Z,12.28
2023-04-28T04:41:21.909Z,12.29
2023-04-28T04:43:48.904Z,12.33
2023-04-28T04:46:15.986Z,12.35
2023-04-28T04:48:43.211Z,12.37
2023-04-28T04:51:11.634Z,12.38
2023-04-28T04:53:38.732Z,12.40
2023-04-28T04:56:06.928Z,12.39
2023-04-28T04:58:33.883Z,12.41
2023-04-28T05:01:00.825Z,12.42
2023-04-28T05:03:27.894Z,12.43
2023-04-28T05:05:54.981Z,12.44
2023-04-28T05:08:23.333Z,12.46
2023-04-28T05:10:50.329Z,12.50
2023-04-28T05:13:17.263Z,12.53
2023-04-28T05:15:44.231Z,12.55
2023-04-28T05:18:11.468Z,12.58
2023-04-28T05:20:38.592Z,12.62
2023-04-28T05:23:06.680Z,12.65
2023-04-28T05:25:35.100Z,12.68
2023-04-28T05:28:07.594Z,12.76
2023-04-28T05:30:34.853Z,12.82
2023-04-28T05:33:01.892Z,12.86
2023-04-28T05:35:29.003Z,12.92
2023-04-28T05:37:55.969Z,12.97
2023-04-28T05:40:23.048Z,12.99
2023-04-28T05:42:51.318Z,13.04
2023-04-28T05:45:18.551Z,13.09
2023-04-28T05:47:45.759Z,13.15
2023-04-28T05:50:12.865Z,13.22
2023-04-28T05:52:39.765Z,13.27
2023-04-28T05:55:08.154Z,13.32
2023-04-28T05:57:49.231Z,13.39
2023-04-28T06:00:18.857Z,13.44
2023-04-28T06:02:45.973Z,13.52
2023-04-28T06:05:13.362Z,13.62
2023-04-28T06:07:40.612Z,13.72
2023-04-28T06:10:09.897Z,13.84
2023-04-28T06:12:37.379Z,13.93
2023-04-28T06:15:06.522Z,14.02
2023-04-28T06:17:34.881Z,14.05
2023-04-28T06:20:01.903Z,14.11
2023-04-28T06:22:28.808Z,14.15
2023-04-28T06:24:55.834Z,14.21
2023-04-28T06:27:22.712Z,14.27
2023-04-28T06:29:49.640Z,14.34
2023-04-28T06:32:16.934Z,14.43
2023-04-28T06:34:45.321Z,14.52
2023-04-28T06:37:12.262Z,14.57
2023-04-28T06:39:39.203Z,14.66
2023-04-28T06:42:06.270Z,14.79
2023-04-28T06:44:34.816Z,14.88
2023-04-28T06:47:03.340Z,14.97
2023-04-28T06:49:30.466Z,15.08
2023-04-28T06:51:58.939Z,15.20
2023-04-28T06:54:25.975Z,15.34
2023-04-28T06:56:52.848Z,15.50
2023-04-28T06:59:19.762Z,15.68
2023-04-28T07:01:46.668Z,15.88
2023-04-28T07:04:13.933Z,16.04
2023-04-28T07:06:41.267Z,16.13
2023-04-28T07:09:09.692Z,16.27
2023-04-28T07:11:37.040Z,16.41
2023-04-28T07:14:03.980Z,16.50
2023-04-28T07:16:31.014Z,16.56
2023-04-28T07:18:58.075Z,16.60
2023-04-28T07:21:25.047Z,16.66
2023-04-28T07:23:51.999Z,16.71
2023-04-28T07:26:20.542Z,16.73
2023-04-28T07:28:48.081Z,16.70
2023-04-28T07:31:15.154Z,16.78
2023-04-28T07:33:42.089Z,16.92
2023-04-28T07:36:09.480Z,16.89
2023-04-28T07:38:36.646Z,16.88
2023-04-28T07:41:05.713Z,16.94
2023-04-28T07:43:35.770Z,16.89
2023-04-28T07:46:02.687Z,16.71
2023-04-28T07:48:29.834Z,16.67
2023-04-28T07:50:56.796Z,16.66
2023-04-28T07:53:23.994Z,16.56
2023-04-28T07:55:51.282Z,16.58
2023-04-28T07:58:18.475Z,16.58
2023-04-28T08:00:46.791Z,16.61
2023-04-28T08:03:13.958Z,16.68
2023-04-28T08:05:42.921Z,16.82
2023-04-28T08:08:09.983Z,16.94
2023-04-28T08:10:38.017Z,17.06
2023-04-28T08:13:04.942Z,17.28
2023-04-28T08:15:32.086Z,17.42
2023-04-28T08:18:00.527Z,17.51
2023-04-28T08:20:27.521Z,17.53
2023-04-28T08:22:54.537Z,17.60
2023-04-28T08:25:22.302Z,17.57
2023-04-28T08:27:49.521Z,17.71
2023-04-28T08:30:16.531Z,17.72
2023-04-28T08:32:44.242Z,17.58
2023-04-28T08:35:12.845Z,17.39
2023-04-28T08:37:39.821Z,17.35
2023-04-28T08:40:11.795Z,17.44
2023-04-28T08:42:39.774Z,17.66
2023-04-28T08:45:12.795Z,17.85
2023-04-28T08:47:45.663Z,17.96
2023-04-28T08:50:14.921Z,17.99
2023-04-28T08:52:45.207Z,18.34
2023-04-28T08:55:13.256Z,18.11
2023-04-28T08:57:44.975Z,18.18
2023-04-28T09:00:13.179Z,18.26
2023-04-28T09:02:42.646Z,18.29
2023-04-28T09:05:12.220Z,18.41
2023-04-28T09:07:43.586Z,18.43
2023-04-28T09:10:21.072Z,18.40
2023-04-28T09:12:51.677Z,18.47
2023-04-28T09:15:33.212Z,19.01
2023-04-28T09:18:02.538Z,18.65
2023-04-28T09:20:32.929Z,18.55
2023-04-28T09:23:16.388Z,18.47
2023-04-28T09:25:59.092Z,18.50
2023-04-28T09:28:26.271Z,18.59
2023-04-28T09:30:53.392Z,18.56
2023-04-28T09:33:21.832Z,18.61
2023-04-28T09:35:49.775Z,18.68
2023-04-28T09:38:20.557Z,18.73
2023-04-28T09:40:53.173Z,18.85
2023-04-28T09:43:28.702Z,18.91
2023-04-28T09:45:57.431Z,18.98
2023-04-28T09:48:31.065Z,19.30
2023-04-28T09:50:59.324Z,19.30
2023-04-28T09:53:28.824Z,19.12
2023-04-28T09:55:58.687Z,19.08
2023-04-28T09:58:27.570Z,19.06
2023-04-28T10:00:57.839Z,18.98
2023-04-28T10:03:29.335Z,19.14
2023-04-28T10:05:58.717Z,19.43
2023-04-28T10:08:27.890Z,19.70
2023-04-28T10:10:56.689Z,19.81
2023-04-28T10:13:25.055Z,20.21
2023-04-28T10:15:55.587Z,20.09
2023-04-28T10:18:24.379Z,20.28
2023-04-28T10:20:58.386Z,20.44
2023-04-28T10:23:51.198Z,20.56
2023-04-28T10:26:20.003Z,20.38
2023-04-28T10:28:49.178Z,20.21
2023-04-28T10:31:18.652Z,20.16
2023-04-28T10:33:48.348Z,20.00
2023-04-28T10:36:50.925Z,19.91
2023-04-28T10:39:19.465Z,19.89
2023-04-28T10:41:50.539Z,19.87
2023-04-28T10:44:42.839Z,20.21
2023-04-28T10:47:10.852Z,20.08
2023-04-28T10:50:10.414Z,19.97
2023-04-28T10:52:50.519Z,20.04
2023-04-28T10:55:32.646Z,19.85
2023-04-28T10:58:32.607Z,19.52
2023-04-28T11:01:25.487Z,19.40
2023-04-28T11:04:00.470Z,19.25
2023-04-28T11:06:30.084Z,19.21
2023-04-28T11:09:03.568Z,19.30
2023-04-28T11:11:36.351Z,19.38
2023-04-28T11:14:35.860Z,19.52
2023-04-28T11:17:05.407Z,19.43
2023-04-28T11:19:34.787Z,19.39
2023-04-28T11:22:04.647Z,19.27
2023-04-28T11:24:32.155Z,19.29
2023-04-28T11:27:02.192Z,19.39
2023-04-28T11:29:34.015Z,19.55
2023-04-28T11:32:01.527Z,19.56
2023-04-28T11:34:28.684Z,19.63
2023-04-28T11:36:56.334Z,19.74
2023-04-28T11:39:28.718Z,19.64
2023-04-28T11:41:57.026Z,19.59
2023-04-28T11:44:29.278Z,19.52
2023-04-28T11:47:00.676Z,19.34
2023-04-28T11:49:31.294Z,19.74
2023-04-28T11:52:05.657Z,19.49
2023-04-28T11:54:33.524Z,19.56
2023-04-28T11:57:03.946Z,19.54
2023-04-28T11:59:34.304Z,19.54
2023-04-28T12:02:03.965Z,19.50
2023-04-28T12:04:35.761Z,19.44
2023-04-28T12:07:07.768Z,19.29
2023-04-28T12:09:44.775Z,19.17
2023-04-28T12:12:15.475Z,18.99
2023-04-28T12:15:07.979Z,18.78
2023-04-28T12:17:38.932Z,18.72
2023-04-28T12:20:09.980Z,18.80
2023-04-28T12:22:48.763Z,18.83
2023-04-28T12:25:19.171Z,18.99
2023-04-28T12:28:02.524Z,18.96
2023-04-28T12:30:33.632Z,19.12
2023-04-28T12:33:01.401Z,19.12
2023-04-28T12:35:29.689Z,19.14
2023-04-28T12:37:58.694Z,19.11
2023-04-28T12:40:26.261Z,19.21
2023-04-28T12:42:53.666Z,19.24
2023-04-28T12:45:20.719Z,19.30
2023-04-28T12:47:49.145Z,19.46
2023-04-28T12:50:16.200Z,19.65
2023-04-28T12:52:43.405Z,19.84
2023-04-28T12:55:11.005Z,19.75
2023-04-28T12:57:39.695Z,19.90
2023-04-28T13:00:08.739Z,19.85
2023-04-28T13:02:36.356Z,19.76
2023-04-28T13:05:06.083Z,19.79
2023-04-28T13:07:34.386Z,19.92
2023-04-28T13:10:01.468Z,20.21
2023-04-28T13:12:28.398Z,20.50
2023-04-28T13:14:55.282Z,20.69
2023-04-28T13:17:22.973Z,20.71
2023-04-28T13:19:49.935Z,20.86
2023-04-28T13:22:18.331Z,20.93
2023-04-28T13:24:46.030Z,21.07
2023-04-28T13:27:13.223Z,21.24
2023-04-28T13:29:40.155Z,21.16
2023-04-28T13:32:07.341Z,20.88
2023-04-28T13:34:34.579Z,20.81
2023-04-28T13:37:01.515Z,20.87
2023-04-28T13:39:29.844Z,21.01
2023-04-28T13:41:56.773Z,21.26
2023-04-28T13:44:24.074Z,21.56
2023-04-28T13:46:52.409Z,21.82
2023-04-28T13:49:20.023Z,21.99
2023-04-28T13:51:47.332Z,22.13
2023-04-28T13:54:14.661Z,22.17
2023-04-28T13:56:43.662Z,22.10
2023-04-28T13:59:10.702Z,22.02
2023-04-28T14:01:37.766Z,21.84
2023-04-28T14:04:04.918Z,21.66
2023-04-28T14:06:33.643Z,21.43
2023-04-28T14:09:02.797Z,21.30
2023-04-28T14:11:29.939Z,21.32
2023-04-28T14:13:58.782Z,21.37
2023-04-28T14:16:37.451Z,21.39
2023-04-28T14:19:09.295Z,21.61
2023-04-28T14:21:38.054Z,21.84
2023-04-28T14:24:05.949Z,22.08
2023-04-28T14:26:33.181Z,22.02
2023-04-28T14:29:01.538Z,21.95
2023-04-28T14:31:28.924Z,21.86
2023-04-28T14:33:55.923Z,21.75
2023-04-28T14:36:22.921Z,21.81
2023-04-28T14:38:49.965Z,21.77
2023-04-28T14:41:16.953Z,21.77
2023-04-28T14:43:44.806Z,21.82
2023-04-28T14:46:13.376Z,21.90
2023-04-28T14:48:40.667Z,21.92
2023-04-28T14:51:08.161Z,21.89
2023-04-28T14:53:35.297Z,21.80
2023-04-28T14:56:17.323Z,21.63
2023-04-28T14:58:45.936Z,21.59
2023-04-28T15:01:14.598Z,21.51
2023-04-28T15:03:41.854Z,21.27
2023-04-28T15:06:09.426Z,21.11
2023-04-28T15:08:37.158Z,20.98
2023-04-28T15:11:04.316Z,20.91
2023-04-28T15:13:32.149Z,20.90
2023-04-28T15:16:00.299Z,20.76
2023-04-28T15:18:28.768Z,20.60
2023-04-28T15:20:56.107Z,20.66
2023-04-28T15:23:23.080Z,20.66
2023-04-28T15:25:53.365Z,20.64
2023-04-28T15:28:20.410Z,20.57
2023-04-28T15:30:47.382Z,20.57
2023-04-28T15:33:17.433Z,20.58
2023-04-28T15:35:46.736Z,20.62
2023-04-28T15:38:14.179Z,20.59
2023-04-28T15:40:42.631Z,20.60
2023-04-28T15:43:10.084Z,20.56
2023-04-28T15:45:38.902Z,20.57
2023-04-28T15:48:06.719Z,20.59
2023-04-28T15:50:35.892Z,20.50
2023-04-28T15:53:04.223Z,20.33
2023-04-28T15:55:31.388Z,20.10
2023-04-28T15:57:58.524Z,19.75
2023-04-28T16:00:25.498Z,19.57
2023-04-28T16:02:52.943Z,19.45
2023-04-28T16:05:20.398Z,19.32
2023-04-28T16:07:48.420Z,19.23
2023-04-28T16:10:17.200Z,19.19
2023-04-28T16:12:44.371Z,19.18
2023-04-28T16:15:13.921Z,19.16
2023-04-28T16:17:42.053Z,19.11
2023-04-28T16:20:11.558Z,19.06
2023-04-28T16:22:40.655Z,18.99
2023-04-28T16:25:09.170Z,18.87
2023-04-28T16:27:38.950Z,18.75
2023-04-28T16:30:08.781Z,18.71
2023-04-28T16:32:40.605Z,18.63
2023-04-28T16:35:15.123Z,18.56
2023-04-28T16:37:43.479Z,18.57
2023-04-28T16:40:12.342Z,18.57
2023-04-28T16:42:41.892Z,18.61
2023-04-28T16:45:10.800Z,18.59
2023-04-28T16:47:38.588Z,18.50
2023-04-28T16:50:09.173Z,18.43
2023-04-28T16:52:36.087Z,18.43
2023-04-28T16:55:04.159Z,18.40
2023-04-28T16:57:31.278Z,18.40
2023-04-28T16:59:59.736Z,18.39
2023-04-28T17:02:28.620Z,18.35
2023-04-28T17:04:55.800Z,18.36
2023-04-28T17:07:24.991Z,18.39
2023-04-28T17:09:53.099Z,18.34
2023-04-28T17:12:20.908Z,18.33
2023-04-28T17:14:50.541Z,18.37
2023-04-28T17:17:22.419Z,18.32
2023-04-28T17:19:49.653Z,18.31
2023-04-28T17:22:17.028Z,18.26
2023-04-28T17:24:45.308Z,18.22
2023-04-28T17:27:12.231Z,18.17
2023-04-28T17:29:39.182Z,18.20
2023-04-28T17:32:06.183Z,18.22
2023-04-28T17:34:34.445Z,18.24
2023-04-28T17:37:01.378Z,18.25
2023-04-28T17:39:28.253Z,18.27
2023-04-28T17:41:57.528Z,18.29
2023-04-28T17:44:24.652Z,18.31
2023-04-28T17:46:52.616Z,18.29
2023-04-28T17:49:19.588Z,18.27
2023-04-28T17:51:47.859Z,18.23
2023-04-28T17:54:14.813Z,18.16
2023-04-28T17:56:41.687Z,18.14
2023-04-28T17:59:08.931Z,18.06
2023-04-28T18:01:36.152Z,18.02
2023-04-28T18:04:03.249Z,17.98
2023-04-28T18:06:30.227Z,17.98
2023-04-28T18:08:58.428Z,17.97
2023-04-28T18:11:27.797Z,17.93
2023-04-28T18:13:54.773Z,17.89
2023-04-28T18:16:21.769Z,17.89
2023-04-28T18:18:49.290Z,17.86
2023-04-28T18:21:16.604Z,17.82
2023-04-28T18:23:43.585Z,17.75
2023-04-28T18:26:15.346Z,17.69
2023-04-28T18:28:46.073Z,17.61
2023-04-28T18:31:12.989Z,17.56
2023-04-28T18:33:39.920Z,17.53
2023-04-28T18:36:07.587Z,17.47
2023-04-28T18:38:36.288Z,17.41
2023-04-28T18:41:14.126Z,17.35
2023-04-28T18:43:42.285Z,17.34
2023-04-28T18:46:10.324Z,17.33
2023-04-28T18:48:37.785Z,17.31
2023-04-28T18:51:05.429Z,17.30
2023-04-28T18:53:33.416Z,17.27
2023-04-28T18:56:00.405Z,17.25
2023-04-28T18:58:29.143Z,17.23
2023-04-28T19:00:56.487Z,17.18
2023-04-28T19:03:24.362Z,17.17
2023-04-28T19:05:51.446Z,17.17
2023-04-28T19:08:18.535Z,17.13
2023-04-28T19:10:45.441Z,17.12
2023-04-28T19:13:12.692Z,17.11
2023-04-28T19:15:40.900Z,17.12
2023-04-28T19:18:08.063Z,17.12
2023-04-28T19:20:35.731Z,17.12
2023-04-28T19:23:03.627Z,17.11
2023-04-28T19:25:33.364Z,17.13
2023-04-28T19:28:00.340Z,17.15
2023-04-28T19:30:27.460Z,17.16
2023-04-28T19:32:55.835Z,17.16
2023-04-28T19:35:23.315Z,17.13
2023-04-28T19:37:50.600Z,17.12
2023-04-28T19:40:17.774Z,17.11
2023-04-28T19:42:44.705Z,17.10
2023-04-28T19:45:11.961Z,17.08
2023-04-28T19:47:39.394Z,17.07
2023-04-28T19:50:10.199Z,17.07
2023-04-28T19:52:37.413Z,17.10
2023-04-28T19:55:04.982Z,17.13
2023-04-28T19:57:31.880Z,17.15
2023-04-28T19:59:58.874Z,17.17
2023-04-28T20:02:26.142Z,17.17
2023-04-28T20:04:53.228Z,17.14
2023-04-28T20:07:21.622Z,17.10
2023-04-28T20:09:48.783Z,17.09
2023-04-28T20:12:15.761Z,17.12
2023-04-28T20:14:42.634Z,17.18
2023-04-28T20:17:09.662Z,17.19
2023-04-28T20:19:36.844Z,17.20
2023-04-28T20:22:06.794Z,17.22
2023-04-28T20:24:36.909Z,17.17
2023-04-28T20:27:04.173Z,17.14
2023-04-28T20:29:34.750Z,17.10
2023-04-28T20:32:02.573Z,17.05
2023-04-28T20:34:30.167Z,17.06
2023-04-28T20:36:59.348Z,17.06
2023-04-28T20:39:26.576Z,17.09
2023-04-28T20:41:54.893Z,17.08
2023-04-28T20:44:22.113Z,17.09
2023-04-28T20:46:49.050Z,17.11
2023-04-28T20:49:16.449Z,17.11
2023-04-28T20:51:46.689Z,17.08
2023-04-28T20:54:14.414Z,17.05
2023-04-28T20:56:42.762Z,17.05
2023-04-28T20:59:11.175Z,17.07
2023-04-28T21:01:38.047Z,17.10
2023-04-28T21:04:05.321Z,17.10
2023-04-28T21:06:32.690Z,17.12
2023-04-28T21:08:59.603Z,17.15
2023-04-28T21:11:27.021Z,17.18
2023-04-28T21:13:54.071Z,17.17
2023-04-28T21:16:22.425Z,17.19
2023-04-28T21:18:50.333Z,17.16
2023-04-28T21:21:17.338Z,17.14
2023-04-28T21:23:45.497Z,17.15
2023-04-28T21:26:12.626Z,17.17
2023-04-28T21:28:40.124Z,17.19
2023-04-28T21:31:07.519Z,17.17
2023-04-28T21:33:35.802Z,17.17
2023-04-28T21:36:07.207Z,17.17
2023-04-28T21:38:34.554Z,17.16
2023-04-28T21:41:02.661Z,17.18
2023-04-28T21:43:29.629Z,17.17
2023-04-28T21:45:56.603Z,17.18
2023-04-28T21:48:23.576Z,17.16
2023-04-28T21:50:51.852Z,17.14
2023-04-28T21:53:18.741Z,17.09
2023-04-28T21:55:45.739Z,17.07
2023-04-28T21:58:12.720Z,17.06
2023-04-28T22:00:44.217Z,17.07
2023-04-28T22:03:13.236Z,17.07
2023-04-28T22:05:41.146Z,17.08
2023-04-28T22:08:09.515Z,17.03
2023-04-28T22:10:36.844Z,17.02
2023-04-28T22:13:05.100Z,16.98
2023-04-28T22:15:32.811Z,16.95
2023-04-28T22:17:59.802Z,16.94
2023-04-28T22:20:27.148Z,16.95
2023-04-28T22:22:54.418Z,16.95
2023-04-28T22:25:22.843Z,16.95
2023-04-28T22:27:49.757Z,16.96
2023-04-28T22:30:16.983Z,16.95
2023-04-28T22:32:44.660Z,16.92
2023-04-28T22:35:12.621Z,16.86
2023-04-28T22:37:40.027Z,16.84
2023-04-28T22:40:09.022Z,16.83
2023-04-28T22:42:38.119Z,16.85
2023-04-28T22:45:06.676Z,16.87
2023-04-28T22:47:34.166Z,16.86
2023-04-28T22:50:03.806Z,16.86
2023-04-28T22:52:30.718Z,16.85
2023-04-28T22:54:57.618Z,16.87
2023-04-28T22:57:24.640Z,16.88
2023-04-28T22:59:53.412Z,16.88
2023-04-28T23:02:20.890Z,16.91
2023-04-28T23:04:48.176Z,16.92
2023-04-28T23:07:15.226Z,16.92
2023-04-28T23:09:42.180Z,16.91
2023-04-28T23:12:09.071Z,16.91
2023-04-28T23:14:36.055Z,16.87
2023-04-28T23:17:04.265Z,16.84
2023-04-28T23:19:31.613Z,16.81
2023-04-28T23:21:58.479Z,16.79
2023-04-28T23:24:27.497Z,16.80
2023-04-28T23:26:54.514Z,16.81
2023-04-28T23:29:21.382Z,16.81
2023-04-28T23:31:52.397Z,16.79
2023-04-28T23:34:21.301Z,16.76
2023-04-28T23:36:48.291Z,16.71
2023-04-28T23:39:15.503Z,16.66
2023-04-28T23:41:42.635Z,16.62
2023-04-28T23:44:09.730Z,16.57
2023-04-28T23:46:36.695Z,16.55
2023-04-28T23:49:03.798Z,16.51
2023-04-28T23:51:32.312Z,16.49
2023-04-28T23:53:59.353Z,16.48
2023-04-28T23:56:26.636Z,16.47
2023-04-28T23:58:53.588Z,16.46
